createdAt,value
2018-05-26T00:00:28.563Z,16.63
2018-05-26T00:05:24.430Z,17.53
2018-05-26T00:10:20.322Z,16.23
2018-05-26T00:15:16.244Z,16.83
2018-05-26T00:20:12.115Z,18.17
2018-05-26T00:25:07.980Z,17.90
2018-05-26T00:30:03.891Z,16.77
2018-05-26T00:34:59.757Z,16.43
2018-05-26T00:39:55.630Z,18.23
2018-05-26T00:44:51.525Z,18.03
2018-05-26T00:49:47.438Z,18.13
2018-05-26T00:54:43.336Z,17.93
2018-05-26T00:59:39.189Z,17.13
2018-05-26T01:04:35.055Z,16.80
2018-05-26T01:09:30.912Z,16.27
2018-05-26T01:14:26.857Z,17.07
2018-05-26T01:19:22.737Z,17.10
2018-05-26T01:24:18.621Z,18.13
2018-05-26T01:29:14.530Z,18.33
2018-05-26T01:34:10.431Z,18.20
2018-05-26T01:39:06.339Z,17.23
2018-05-26T01:44:02.207Z,17.47
2018-05-26T01:48:58.074Z,16.17
2018-05-26T01:53:53.981Z,16.33
2018-05-26T01:58:49.849Z,16.83
2018-05-26T02:03:45.741Z,15.23
2018-05-26T02:08:41.609Z,15.53
2018-05-26T02:13:37.492Z,14.90
2018-05-26T02:18:33.436Z,14.90
2018-05-26T02:23:29.316Z,14.20
2018-05-26T02:28:25.159Z,13.67
2018-05-26T02:33:20.998Z,13.57
2018-05-26T02:38:16.876Z,13.50
2018-05-26T02:43:12.747Z,13.33
2018-05-26T02:48:08.594Z,13.80
2018-05-26T02:53:04.487Z,12.93
2018-05-26T02:58:00.380Z,13.30
2018-05-26T03:02:56.243Z,12.53
2018-05-26T03:07:58.127Z,14.77
2018-05-26T03:12:59.975Z,14.20
2018-05-26T03:18:08.732Z,13.47
2018-05-26T03:23:04.600Z,12.53
2018-05-26T03:28:00.497Z,13.90
2018-05-26T03:32:56.381Z,13.67
2018-05-26T03:37:52.277Z,13.33
2018-05-26T03:42:48.150Z,12.97
2018-05-26T03:47:44.047Z,11.73
2018-05-26T03:52:39.947Z,12.40
2018-05-26T03:57:41.873Z,11.80
2018-05-26T04:02:37.790Z,11.50
2018-05-26T04:07:33.705Z,11.73
2018-05-26T04:12:29.586Z,12.33
2018-05-26T04:17:25.489Z,12.10
2018-05-26T04:22:21.402Z,11.87
2018-05-26T04:27:17.309Z,12.27
2018-05-26T04:32:13.179Z,12.47
2018-05-26T04:37:09.060Z,11.30
2018-05-26T04:42:04.949Z,11.90
2018-05-26T04:47:00.790Z,12.50
2018-05-26T04:51:56.699Z,12.00
2018-05-26T04:56:52.550Z,11.33
2018-05-26T05:01:48.437Z,11.83
2018-05-26T05:06:44.352Z,12.73
2018-05-26T05:11:40.223Z,12.23
2018-05-26T05:16:36.119Z,13.07
2018-05-26T05:21:31.990Z,13.40
2018-05-26T05:26:27.893Z,13.50
2018-05-26T05:31:23.789Z,13.67
2018-05-26T05:36:19.673Z,15.60
2018-05-26T05:41:15.530Z,15.50
2018-05-26T05:46:11.432Z,15.83
2018-05-26T05:51:07.325Z,16.63
2018-05-26T05:56:03.249Z,18.80
2018-05-26T06:00:59.148Z,19.07
2018-05-26T06:05:55.038Z,18.57
2018-05-26T06:10:50.913Z,18.63
2018-05-26T06:15:46.854Z,17.70
2018-05-26T06:20:42.692Z,18.40
2018-05-26T06:25:38.585Z,16.80
2018-05-26T06:30:34.459Z,15.70
2018-05-26T06:35:30.306Z,14.00
2018-05-26T06:40:26.211Z,12.50
2018-05-26T06:45:22.097Z,10.60
2018-05-26T06:50:18.002Z,8.47
2018-05-26T06:55:13.935Z,6.70
2018-05-26T07:00:09.769Z,4.87
2018-05-26T07:05:05.678Z,4.60
2018-05-26T07:10:01.535Z,4.90
2018-05-26T07:14:57.400Z,22.90
2018-05-26T07:19:53.275Z,6.15
2018-05-26T07:24:49.181Z,9.80
2018-05-26T07:29:45.030Z,5.20
2018-05-26T07:34:40.933Z,4.95
2018-05-26T07:39:36.792Z,4.53
2018-05-26T07:44:32.657Z,3.92
2018-05-26T07:49:28.536Z,4.00
2018-05-26T07:54:24.418Z,3.53
2018-05-26T07:59:20.317Z,3.50
2018-05-26T08:04:16.180Z,3.55
2018-05-26T08:09:12.058Z,3.70
2018-05-26T08:14:07.959Z,3.25
2018-05-26T08:19:03.813Z,3.15
2018-05-26T08:23:59.674Z,3.75
2018-05-26T08:28:55.557Z,3.50
2018-05-26T08:33:51.514Z,3.58
2018-05-26T08:38:47.376Z,3.47
2018-05-26T08:43:43.268Z,3.40
2018-05-26T08:48:39.131Z,8.40
2018-05-26T08:53:35.000Z,3.05
2018-05-26T08:58:30.873Z,8.52
2018-05-26T09:03:26.756Z,3.22
2018-05-26T09:08:22.684Z,2.97
2018-05-26T09:13:18.591Z,2.62
2018-05-26T09:18:14.453Z,2.60
2018-05-26T09:23:10.305Z,3.20
2018-05-26T09:28:06.161Z,2.30
2018-05-26T09:33:02.041Z,3.05
2018-05-26T09:37:57.916Z,18.50
2018-05-26T09:42:53.846Z,55.47
2018-05-26T09:47:49.764Z,54.40
2018-05-26T09:52:45.642Z,34.78
2018-05-26T09:57:41.535Z,4.35
2018-05-26T10:02:37.401Z,4.10
2018-05-26T10:07:33.309Z,2.80
2018-05-26T10:12:29.206Z,2.40
2018-05-26T10:17:25.113Z,2.20
2018-05-26T10:22:21.015Z,2.20
2018-05-26T10:27:16.896Z,2.30
2018-05-26T10:32:12.791Z,2.15
2018-05-26T10:37:08.676Z,2.20
2018-05-26T10:42:04.563Z,2.78
2018-05-26T10:47:00.473Z,7.20
2018-05-26T10:51:56.349Z,2.30
2018-05-26T10:56:52.197Z,2.50
2018-05-26T11:01:48.103Z,2.45
2018-05-26T11:06:45.874Z,2.50
2018-05-26T11:11:41.742Z,2.50
2018-05-26T11:16:37.632Z,2.40
2018-05-26T11:21:33.509Z,2.37
2018-05-26T11:26:29.434Z,3.33
2018-05-26T11:31:25.330Z,3.55
2018-05-26T11:36:21.217Z,3.25
2018-05-26T11:41:17.109Z,3.70
2018-05-26T11:46:13.016Z,2.95
2018-05-26T11:51:08.904Z,7.43
2018-05-26T11:56:04.778Z,7.22
2018-05-26T12:01:00.669Z,5.35
2018-05-26T12:05:56.569Z,3.93
2018-05-26T12:10:52.555Z,3.90
2018-05-26T12:15:48.419Z,3.47
2018-05-26T12:20:44.290Z,3.53
2018-05-26T12:25:40.205Z,4.30
2018-05-26T12:30:36.069Z,4.10
2018-05-26T12:35:31.935Z,3.62
2018-05-26T12:40:27.839Z,4.43
2018-05-26T12:45:23.801Z,5.22
2018-05-26T12:50:19.696Z,3.92
2018-05-26T12:55:15.630Z,4.28
2018-05-26T13:00:11.517Z,5.00
2018-05-26T13:05:07.385Z,4.37
2018-05-26T13:10:03.273Z,60.80
2018-05-26T13:14:59.141Z,5.45
2018-05-26T13:19:55.032Z,3.75
2018-05-26T13:24:50.872Z,3.92
2018-05-26T13:29:46.845Z,5.00
2018-05-26T13:34:42.747Z,4.62
2018-05-26T13:39:41.414Z,4.00
2018-05-26T13:44:37.266Z,3.50
2018-05-26T13:49:33.168Z,3.40
2018-05-26T13:54:29.125Z,3.45
2018-05-26T13:59:24.999Z,3.40
2018-05-26T14:04:20.969Z,4.30
2018-05-26T14:09:16.817Z,15.55
2018-05-26T14:14:12.697Z,3.95
2018-05-26T14:19:08.563Z,3.22
2018-05-26T14:24:04.514Z,3.10
2018-05-26T14:29:00.392Z,3.10
2018-05-26T14:33:56.306Z,3.20
2018-05-26T14:38:52.171Z,3.12
2018-05-26T14:43:48.067Z,3.20
2018-05-26T14:48:43.937Z,3.60
2018-05-26T14:53:39.833Z,3.35
2018-05-26T14:58:35.735Z,3.15
2018-05-26T15:03:31.642Z,3.37
2018-05-26T15:08:27.510Z,3.15
2018-05-26T15:13:23.415Z,3.60
2018-05-26T15:18:19.325Z,3.28
2018-05-26T15:23:15.217Z,3.60
2018-05-26T15:28:11.133Z,3.53
2018-05-26T15:33:07.030Z,8.30
2018-05-26T15:38:02.878Z,3.37
2018-05-26T15:42:58.796Z,4.07
2018-05-26T15:47:54.646Z,3.83
2018-05-26T15:52:50.534Z,4.30
2018-05-26T15:57:46.451Z,4.40
2018-05-26T16:02:42.313Z,3.80
2018-05-26T16:07:38.177Z,4.22
2018-05-26T16:12:34.069Z,4.35
2018-05-26T16:17:29.938Z,3.70
2018-05-26T16:22:25.839Z,3.60
2018-05-26T16:27:21.718Z,3.83
2018-05-26T16:32:17.563Z,4.12
2018-05-26T16:37:13.495Z,5.53
2018-05-26T16:42:09.376Z,4.75
2018-05-26T16:47:05.266Z,4.53
2018-05-26T16:52:01.202Z,3.92
2018-05-26T16:56:57.101Z,4.68
2018-05-26T17:01:52.999Z,4.03
2018-05-26T17:06:48.903Z,3.90
2018-05-26T17:11:44.839Z,4.78
2018-05-26T17:16:40.739Z,4.12
2018-05-26T17:21:36.678Z,3.92
2018-05-26T17:26:32.557Z,5.85
2018-05-26T17:31:28.417Z,4.28
2018-05-26T17:36:24.315Z,13.73
2018-05-26T17:41:20.201Z,4.72
2018-05-26T17:46:16.050Z,4.18
2018-05-26T17:51:11.971Z,4.68
2018-05-26T17:56:07.852Z,5.40
2018-05-26T18:01:03.773Z,4.05
2018-05-26T18:05:59.667Z,3.92
2018-05-26T18:10:55.514Z,4.25
2018-05-26T18:15:51.389Z,3.75
2018-05-26T18:20:47.268Z,4.03
2018-05-26T18:25:44.079Z,9.60
2018-05-26T18:30:39.988Z,18.10
2018-05-26T18:35:35.872Z,14.85
2018-05-26T18:40:31.748Z,8.68
2018-05-26T18:45:27.605Z,6.68
2018-05-26T18:50:23.475Z,6.32
2018-05-26T18:55:19.675Z,6.55
2018-05-26T19:00:15.558Z,7.28
2018-05-26T19:05:11.436Z,6.53
2018-05-26T19:10:14.225Z,24.77
2018-05-26T19:15:10.102Z,7.35
2018-05-26T19:20:06.010Z,9.35
2018-05-26T19:25:01.881Z,8.70
2018-05-26T19:29:57.803Z,9.02
2018-05-26T19:34:53.713Z,8.18
2018-05-26T19:39:49.601Z,7.50
2018-05-26T19:44:45.523Z,7.87
2018-05-26T19:49:41.392Z,8.15
2018-05-26T19:54:37.315Z,8.43
2018-05-26T19:59:33.237Z,8.97
2018-05-26T20:04:29.157Z,8.38
2018-05-26T20:09:25.025Z,10.05
2018-05-26T20:14:20.893Z,9.88
2018-05-26T20:19:16.846Z,9.30
2018-05-26T20:24:12.663Z,9.47
2018-05-26T20:29:08.525Z,11.30
2018-05-26T20:34:04.413Z,10.23
2018-05-26T20:39:00.315Z,9.63
2018-05-26T20:43:56.220Z,10.30
2018-05-26T20:48:52.137Z,10.40
2018-05-26T20:53:47.975Z,10.80
2018-05-26T20:58:43.912Z,9.97
2018-05-26T21:03:39.836Z,10.13
2018-05-26T21:08:35.709Z,9.53
2018-05-26T21:13:31.611Z,10.47
2018-05-26T21:18:27.496Z,10.07
2018-05-26T21:23:23.374Z,10.57
2018-05-26T21:28:19.242Z,10.30
2018-05-26T21:33:15.151Z,10.90
2018-05-26T21:38:11.053Z,9.23
2018-05-26T21:43:06.929Z,9.90
2018-05-26T21:48:02.797Z,10.60
2018-05-26T21:52:58.652Z,10.43
2018-05-26T21:57:54.516Z,11.00
2018-05-26T22:02:50.411Z,11.47
2018-05-26T22:07:46.320Z,11.43
2018-05-26T22:12:42.188Z,11.60
2018-05-26T22:17:38.086Z,11.87
2018-05-26T22:22:33.971Z,11.87
2018-05-26T22:27:29.844Z,11.77
2018-05-26T22:32:25.686Z,12.00
2018-05-26T22:37:21.528Z,11.83
2018-05-26T22:42:17.416Z,12.13
2018-05-26T22:47:13.289Z,11.93
2018-05-26T22:52:09.124Z,12.17
2018-05-26T22:57:05.025Z,11.77
2018-05-26T23:02:00.896Z,11.80
2018-05-26T23:06:56.812Z,12.27
2018-05-26T23:11:52.741Z,13.03
2018-05-26T23:16:48.617Z,12.67
2018-05-26T23:21:44.493Z,12.50
2018-05-26T23:26:40.365Z,13.50
2018-05-26T23:31:36.288Z,12.10
2018-05-26T23:36:32.160Z,13.87
2018-05-26T23:41:28.018Z,13.73
2018-05-26T23:46:23.950Z,13.40
2018-05-26T23:51:19.829Z,13.20
2018-05-26T23:56:15.701Z,11.77
